Route Details

Aircraft Information
Group: Trans-Atlantic Ops
Types: B744, MD11, B763
Route Data
Distance: 1225nm
Duration: 0h 00m
Origin METAR: EDDK 260320Z AUTO 14004KT CAVOK 10/10 Q1017 NOSIG
Dest. METAR: BIKF 260330Z 13020KT 9999 BKN006 BKN043 09/08 Q1010
Freight Data
(for May 26, 2024)
Load Factor:
84%
Manifested Cargo: 129,591lbs
Financial History
Total Freight: 80,750lbs
Average Load: 0lbs/flt
Fuel Used: 131,362lbs
Avg. Fuel Used: 0lbs/flt
Fuel Expense: $49,729
Avg. Fuel Expense: $0
Avg. Fuel Cost: $0/lbs
Total Gross Income: $185,725
Pilot Pay: $508
Total Expenses: $37,145
Total Revenue: $96,011
Average Revenue: $0

Capitol Logistics 521




EDDK
Cologne Bonn Airport
Cologne, DE
BIKF
Keflavik International Airport
Keflavik, IS

Activity Log

Date Flight Route Aircraft Duration
04/26/2023 CPX521 WYP1C WYP DCT RKN DCT ANDIK Z733 KONOM DCT ADIKU DCT ODMIX DCT PEMOS G11 MY G3 NASBU NASB2M B763 3h 41m
03/12/2023 CPX521 Not Available B744 3h 29m